Flight Track Log - Related Links

Times and Time Zones

All times are in EDT time to prevent confusion due to time zone crossing. See the EJA292 flight status page for this flight to view local times or setup timezone preferences in your user account.

Time Position Orientation Groundspeed Altitude Reporting Facility
EDT Latitude Longitude Course Direction KTS MPH feet Rate Location/Type
Thu 06:33:54 PM 38.3858 -106.9958 208° Southwest 265 305 15,600  Level Denver Center
Thu 06:34:56 PM 38.3183 -107.0300 202° Southwest 263 303 17,500 1,707 Climbing Denver Center
Thu 06:35:57 PM 38.2897 -107.0986 242° Southwest 266 306 19,100 1,306 Climbing Denver Center
Thu 06:37:00 PM 38.2008 -107.1678 211° Southwest 321 369 20,200 1,440 Climbing Denver Center
Thu 06:38:00 PM 37.8921 -107.3402 207° Southwest  Level FlightAware Approximate
Thu 06:38:02 PM 38.1114 -107.2222 206° Southwest 344 396 22,100  Level Denver Center
Thu 06:39:00 PM 37.7872 -107.4141 208° Southwest  Level FlightAware Approximate
Thu 06:39:04 PM 38.0131 -107.2886 208° Southwest 350 403 23,200  Level Denver Center
Thu 06:40:18 PM 37.9094 -107.3564 207° Southwest 381 438 24,700 1,226 Climbing Denver Center
Thu 06:41:21 PM 37.8019 -107.4278 208° Southwest 389 448 26,000 1,258 Climbing Denver Center
Thu 06:42:22 PM 37.7081 -107.4881 207° Southwest 394 453 27,300 1,104 Climbing Denver Center
Thu 06:43:26 PM 37.5961 -107.5603 207° Southwest 402 463 28,300 912 Climbing Denver Center
Thu 06:44:27 PM 37.4753 -107.5233 166° South 441 507 29,200 927 Climbing Denver Center
Thu 06:45:29 PM 37.3969 -107.4064 130° Southeast 456 525 30,200 829 Climbing Denver Center
Thu 06:46:30 PM 37.3297 -107.3094 131° Southeast 459 528 30,900 774 Climbing Denver Center
Thu 06:47:33 PM 37.2219 -107.1511 130° Southeast 468 539 31,800 912 Climbing Denver Center
Thu 06:48:35 PM 37.1258 -107.0089 130° Southeast 476 548 32,800 1,065 Climbing Denver Center
Thu 06:49:37 PM 37.0431 -106.8867 130° Southeast 480 552 34,000 1,355 Climbing Denver Center
Thu 06:50:39 PM 36.9469 -106.7472 131° Southeast 473 544 35,600 1,210 Climbing Denver Center
Thu 06:51:41 PM 36.8667 -106.6289 130° Southeast 468 539 36,500 968 Climbing Denver Center
Thu 06:52:43 PM 36.7850 -106.5103 131° Southeast 470 541 37,600 820 Climbing Denver Center
Thu 06:54:00 PM 36.6807 -106.3614 122° Southeast  Level FlightAware Approximate
Thu 06:54:44 PM 36.6092 -106.2558 122° Southeast 467 537 39,000  Level Albuquerque Center
Thu 06:55:46 PM 36.5214 -106.1317 131° Southeast 488 562 39,000  Level Albuquerque Center
Thu 06:56:47 PM 36.4331 -106.0047 131° Southeast 503 579 39,000 195 Level Albuquerque Center
Thu 06:57:49 PM 36.3386 -105.8708 131° Southeast 511 588 39,400 823 Climbing Albuquerque Center
Thu 06:58:51 PM 36.2286 -105.7133 131° Southeast 504 580 40,700 1,210 Climbing Albuquerque Center
Thu 06:59:53 PM 36.1428 -105.5942 132° Southeast 493 567 41,900 1,122 Climbing Albuquerque Center
Thu 07:00:54 PM 36.0261 -105.4972 146° Southeast 458 527 43,000 537 Climbing Albuquerque Center
Thu 07:01:56 PM 35.9111 -105.4203 152° Southeast 463 533 43,000  Level Albuquerque Center
Thu 07:02:58 PM 35.7936 -105.3433 152° Southeast 472 543 43,000  Level Albuquerque Center
Thu 07:04:00 PM 35.6742 -105.2622 151° Southeast 483 556 43,000  Level Albuquerque Center
Thu 07:05:02 PM 35.5567 -105.1747 149° Southeast 489 563 43,000  Level Albuquerque Center
Thu 07:06:03 PM 35.4408 -105.0833 147° Southeast 492 566 43,000  Level Albuquerque Center
Thu 07:07:05 PM 35.3278 -104.9419 134° Southeast 496 571 43,000  Level Albuquerque Center
Thu 07:08:07 PM 35.2378 -104.8150 131° Southeast 494 568 43,000  Level Albuquerque Center
Thu 07:09:08 PM 35.1483 -104.6875 131° Southeast 492 566 43,000  Level Albuquerque Center
Thu 07:10:10 PM 35.0589 -104.5614 131° Southeast 492 566 43,000  Level Albuquerque Center
Thu 07:11:12 PM 34.9700 -104.4339 130° Southeast 493 567 43,000  Level Albuquerque Center
Thu 07:12:13 PM 34.8839 -104.3061 129° Southeast 490 564 43,000  Level Albuquerque Center
Thu 07:13:15 PM 34.7833 -104.1592 130° Southeast 485 558 43,000  Level Albuquerque Center
Thu 07:14:17 PM 34.6975 -104.0344 130° Southeast 482 555 43,000  Level Albuquerque Center
Thu 07:15:18 PM 34.6114 -103.9097 130° Southeast 480 552 43,000  Level Albuquerque Center
Thu 07:16:20 PM 34.5244 -103.7853 130° Southeast 481 554 43,000  Level Albuquerque Center
Thu 07:17:22 PM 34.4381 -103.6603 130° Southeast 482 555 43,000  Level Albuquerque Center
Thu 07:18:23 PM 34.3514 -103.5358 130° Southeast 480 552 43,000  Level Albuquerque Center
Thu 07:19:25 PM 34.2650 -103.4139 131° Southeast 476 548 43,000  Level Albuquerque Center
Thu 07:20:26 PM 34.1800 -103.2897 130° Southeast 476 548 43,000  Level Albuquerque Center
Thu 07:21:28 PM 34.0933 -103.1681 131° Southeast 475 547 43,000  Level Albuquerque Center
Thu 07:22:30 PM 33.9917 -103.0261 131° Southeast 475 547 43,000  Level Albuquerque Center
Thu 07:23:31 PM 33.9158 -102.9228 131° Southeast 473 544 43,000 -341 Level Albuquerque Center
Thu 07:24:33 PM 33.8297 -102.8014 130° Southeast 474 545 42,300 -823 Descending Albuquerque Center
Thu 07:25:35 PM 33.7439 -102.6819 131° Southeast 473 544 41,300 -634 Descending Albuquerque Center
Thu 07:26:36 PM 33.6567 -102.5617 131° Southeast 476 548 41,000 -146 Descending Albuquerque Center
Thu 07:27:38 PM 33.5575 -102.4211 130° Southeast 466 536 41,000  Level Albuquerque Center
Thu 07:28:39 PM 33.4719 -102.3053 132° Southeast 462 532 41,000  Level Albuquerque Center
Thu 07:29:41 PM 33.3839 -102.1842 131° Southeast 472 543 41,000  Level Albuquerque Center
Thu 07:30:43 PM 33.2928 -102.0567 131° Southeast 490 564 41,000  Level Albuquerque Center
Thu 07:32:03 PM 33.1606 -101.8847 133° Southeast 491 565 41,000  Level Fort Worth Center
Thu 07:33:02 PM 33.0708 -101.7639 132° Southeast 485 558 41,000  Level Fort Worth Center
Thu 07:34:02 PM 32.9933 -101.6511 129° Southeast 485 558 41,000  Level Fort Worth Center
Thu 07:35:03 PM 32.9053 -101.5381 133° Southeast 475 547 41,000  Level Fort Worth Center
Thu 07:36:02 PM 32.8175 -101.4178 131° Southeast 475 547 41,000  Level Fort Worth Center
Thu 07:37:02 PM 32.7292 -101.3003 132° Southeast 475 547 41,000  Level Fort Worth Center
Thu 07:38:03 PM 32.6411 -101.1781 131° Southeast 480 552 41,000  Level Fort Worth Center
Thu 07:39:02 PM 32.5486 -101.0583 132° Southeast 480 552 41,000  Level Fort Worth Center
Thu 07:40:02 PM 32.4561 -100.9364 132° Southeast 485 558 41,000  Level Fort Worth Center
Thu 07:41:02 PM 32.3656 -100.8150 131° Southeast 485 558 41,000  Level Fort Worth Center
Thu 07:42:02 PM 32.2625 -100.6833 133° Southeast 491 565 41,000  Level Fort Worth Center
Thu 07:43:02 PM 32.1717 -100.5622 132° Southeast 491 565 41,000  Level Fort Worth Center
Thu 07:44:02 PM 32.0808 -100.4414 132° Southeast 486 559 41,000  Level Fort Worth Center
Thu 07:45:02 PM 31.9936 -100.3258 132° Southeast 481 554 41,000  Level Fort Worth Center
Thu 07:46:02 PM 31.9067 -100.2106 132° Southeast 481 554 41,000  Level Fort Worth Center
Thu 07:47:03 PM 31.8172 -100.0953 132° Southeast 476 548 41,000  Level Fort Worth Center
Thu 07:48:02 PM 31.7256 -99.9803 133° Southeast 476 548 41,000  Level Fort Worth Center
Thu 07:50:12 PM 31.5361 -99.7289 131° Southeast 487 560 41,000  Level Houston Center
Thu 07:51:14 PM 31.4450 -99.6122 132° Southeast 486 559 41,000  Level Houston Center
Thu 07:52:16 PM 31.3506 -99.4900 132° Southeast 484 557 41,000  Level Houston Center
Thu 07:53:18 PM 31.2639 -99.3789 132° Southeast 484 557 41,000  Level Houston Center
Thu 07:54:20 PM 31.1733 -99.2636 133° Southeast 482 555 41,000  Level Houston Center
Thu 07:55:22 PM 31.0775 -99.1419 133° Southeast 478 550 41,000  Level Houston Center
Thu 07:56:25 PM 30.9856 -99.0269 133° Southeast 480 552 41,000  Level Houston Center
Thu 07:57:27 PM 30.8789 -98.8919 133° Southeast 481 554 41,000  Level Houston Center
Thu 07:58:29 PM 30.7931 -98.7697 129° Southeast 486 559 41,000  Level Houston Center
Thu 07:59:31 PM 30.7614 -98.6203 104° East 477 549 41,000  Level Houston Center
Thu 08:00:33 PM 30.7264 -98.4694 105° East 478 550 41,000  Level Houston Center
Thu 08:01:35 PM 30.7100 -98.3164 97° East 476 548 41,000 -97 Level Houston Center
Thu 08:02:37 PM 30.7028 -98.1625 93° East 474 545 40,800 -1,016 Descending Houston Center
Thu 08:03:39 PM 30.6950 -98.0081 93° East 476 548 38,900 -1,839 Descending Houston Center
Thu 08:04:41 PM 30.6853 -97.8256 93° East 483 556 37,000 -919 Descending Houston Center
Thu 08:05:43 PM 30.6769 -97.6700 94° East 481 554 37,000 -581 Level Houston Center
Thu 08:06:45 PM 30.6692 -97.5131 93° East 485 558 35,800 -1,548 Descending Houston Center
Thu 08:07:47 PM 30.6603 -97.3522 94° East 498 573 33,800 -2,064 Descending Houston Center
Thu 08:08:50 PM 30.6517 -97.1903 93° East 504 580 31,500 -2,496 Descending Houston Center
Thu 08:09:52 PM 30.6417 -97.0011 93° East 504 580 28,600 -3,194 Descending Houston Center
Thu 08:10:54 PM 30.6253 -96.8439 97° East 497 572 24,900 -3,774 Descending Houston Center
Thu 08:11:56 PM 30.5553 -96.7194 123° Southeast 460 529 20,800 -3,774 Descending Houston Center
Thu 08:12:58 PM 30.4836 -96.5983 124° Southeast 427 491 17,100 -3,282 Descending Houston Center
Thu 08:13:53 PM 30.4278 -96.5050 125° Southeast 389 448 14,400 -2,897 Descending Houston Center
Thu 08:14:54 PM 30.3647 -96.4008 125° Southeast 364 419 11,500 -2,459 Descending Houston Center
Thu 08:15:55 PM 30.3117 -96.3172 126° Southeast 297 342 9,400 -2,115 Descending Houston Center
Thu 08:16:56 PM 30.2392 -96.2792 156° South 299 344 7,200 -1,125 Descending Houston Center
Thu 08:18:03 PM 30.1567 -96.2450 160° South 271 312 7,000 -224 Descending Houston Center
Thu 08:19:10 PM 30.0786 -96.2133 161° South 276 318 6,700 -879 Descending Houston Center
Thu 08:19:59 PM 30.0133 -96.1886 162° South 283 326 5,300 -879 Descending Houston Center
Thu 08:21:06 PM 29.9331 -96.1567 161° South 266 306 5,000 -375 Descending Houston Center
Thu 08:22:07 PM 29.8856 -96.0947 131° Southeast 256 295 4,500 -492 Descending Houston Center
Thu 08:23:08 PM 29.8467 -96.0317 125° Southeast 231 266 4,000 -439 Descending Houston Center
Thu 08:24:10 PM 29.8092 -95.9639 123° Southeast 255 293 3,600 -489 Descending Houston Center
Thu 08:25:23 PM 29.7639 -95.8881 125° Southeast 242 278 2,900 -836 Descending Houston Center
Thu 08:26:12 PM 29.7331 -95.8353 124° Southeast 233 268 1,900 -491 Descending Houston Center
Thu 08:27:13 PM 29.6992 -95.7842 127° Southeast 195 224 2,000  Climbing Houston Center
Thu 08:28:14 PM 29.6839 -95.7328 109° East 175 201 1,900 -344 Descending Houston Center
Thu 08:29:15 PM 29.6747 -95.6764 101° East 161 185 1,300 -769 Descending Houston Center
Thu 08:30:11 PM 29.6503 -95.6600 150° Southeast 106 122 400 -964 Descending Houston Center
Thu 08:32:00 PM 29.6167 -95.6500 131° Southeast  Level FlightAware Approximate

Login

Don't have an account? Register now (free) for customized features, flight alerts, and more!